Photometre #1041[NE_1.6] Brno_Airport AOT

File : 20220927_1041.hum

27/09/2022,05:41:31,TEMP=10.5,BA=5.52,STAT.A=5.0,ExtBa=14.40
27/09/2022,05:45:30,TEMP=10.8,BA=5.52,STAT.A=5.0,ExtBa=14.30
27/09/2022,05:50:10,TEMP=10.8,BA=5.40,STAT.A=5.0,ExtBa=14.60
27/09/2022,05:55:44,TEMP=10.9,BA=5.40,STAT.A=5.0,ExtBa=14.00
27/09/2022,06:02:27,TEMP=10.9,BA=5.56,STAT.A=5.0,ExtBa=14.10
27/09/2022,06:10:46,TEMP=11.0,BA=5.56,STAT.A=5.0,ExtBa=14.10
27/09/2022,06:21:19,TEMP=11.0,BA=5.56,STAT.B=6.0,ExtBa=13.80
27/09/2022,06:26:24,TEMP=11.0,BA=5.56,STAT.A=5.0,ExtBa=13.70
27/09/2022,06:31:44,TEMP=11.4,BA=5.56,STAT.h
27/09/2022,06:38:12,TEMP=11.4,BA=5.56,STAT.h
27/09/2022,06:45:35,TEMP=11.4,BA=5.56,STAT.h
27/09/2022,06:54:08,TEMP=11.4,BA=5.52,STAT.h
27/09/2022,07:04:09,TEMP=11.4,BA=5.52,STAT.h
27/09/2022,07:16:07,TEMP=11.4,BA=5.52,STAT.h
27/09/2022,07:30:43,TEMP=11.4,BA=5.52,STAT.h
27/09/2022,07:44:36,TEMP=11.4,BA=5.52,STAT.h
27/09/2022,07:59:36,TEMP=11.4,BA=5.52,STAT.h
27/09/2022,08:14:36,TEMP=11.4,BA=5.52,STAT.h
27/09/2022,08:29:36,TEMP=11.4,BA=5.52,STAT.h
27/09/2022,08:44:36,TEMP=11.4,BA=5.52,STAT.h
27/09/2022,08:49:36,TEMP=11.4,BA=5.52,STAT.h
27/09/2022,08:59:36,TEMP=11.4,BA=5.52,STAT.h
27/09/2022,09:14:36,TEMP=11.4,BA=5.52,STAT.h
27/09/2022,09:29:36,TEMP=11.4,BA=5.52,STAT.h
27/09/2022,09:44:36,TEMP=11.4,BA=5.52,STAT.h
27/09/2022,09:59:36,TEMP=11.4,BA=5.52,STAT.h
27/09/2022,10:14:36,TEMP=11.4,BA=5.52,STAT.h
27/09/2022,10:29:36,TEMP=11.4,BA=5.52,STAT.h
27/09/2022,10:44:36,TEMP=11.4,BA=5.48,STAT.h
27/09/2022,10:59:36,TEMP=11.4,BA=5.48,STAT.h
27/09/2022,11:14:58,TEMP=13.6,BA=5.48,STAT.D=6.0,ExtBa=14.50
27/09/2022,11:29:58,TEMP=14.9,BA=5.48,STAT.D=6.0,ExtBa=13.80
27/09/2022,11:44:59,TEMP=14.9,BA=5.52,STAT.F,ExtBa=14.30
27/09/2022,11:59:58,TEMP=14.7,BA=5.48,STAT.D=6.0,ExtBa=13.90
27/09/2022,12:14:58,TEMP=14.7,BA=5.52,STAT.D=6.0,ExtBa=13.90
27/09/2022,12:29:58,TEMP=15.1,BA=5.48,STAT.D=6.0,ExtBa=13.80
27/09/2022,12:44:59,TEMP=15.3,BA=5.52,STAT.F,ExtBa=13.80
27/09/2022,12:59:57,TEMP=15.3,BA=5.44,STAT.D=6.0,ExtBa=13.90
27/09/2022,13:14:57,TEMP=15.3,BA=5.48,STAT.D=6.0,ExtBa=13.80
27/09/2022,13:29:57,TEMP=15.7,BA=5.44,STAT.D=6.0,ExtBa=13.80
27/09/2022,13:44:59,TEMP=16.8,BA=5.48,STAT.F,ExtBa=13.80
27/09/2022,13:58:52,TEMP=16.0,BA=5.36,STAT.A=6.0,ExtBa=13.60
27/09/2022,14:13:28,TEMP=15.2,BA=5.44,STAT.A=6.0,ExtBa=13.80
27/09/2022,14:25:25,TEMP=15.0,BA=5.44,STAT.A=6.0,ExtBa=13.70
27/09/2022,14:35:26,TEMP=15.2,BA=5.48,STAT.C=6.0,ExtBa=13.90
27/09/2022,14:52:34,TEMP=17.6,BA=5.32,STAT.A=6.0,ExtBa=13.00
27/09/2022,14:54:29,TEMP=17.8,BA=5.32,STAT.A=6.0,ExtBa=12.90
27/09/2022,14:57:50,TEMP=17.6,BA=5.32,STAT.A=6.0,ExtBa=13.00
27/09/2022,15:03:32,TEMP=17.5,BA=5.36,STAT.A=6.0,ExtBa=13.10
27/09/2022,15:08:37,TEMP=17.5,BA=5.36,STAT.B=6.0,ExtBa=13.20
27/09/2022,15:19:10,TEMP=17.4,BA=5.32,STAT.A=6.0,ExtBa=12.90
27/09/2022,15:27:30,TEMP=16.1,BA=5.32,STAT.A=6.0,ExtBa=13.10
27/09/2022,15:34:12,TEMP=15.5,BA=5.40,STAT.A=6.0,ExtBa=13.40
27/09/2022,15:39:46,TEMP=15.2,BA=5.40,STAT.A=6.0,ExtBa=13.50
27/09/2022,15:44:26,TEMP=15.0,BA=5.32,STAT.A=6.0,ExtBa=13.40
27/09/2022,15:48:25,TEMP=14.9,BA=5.32,STAT.A=6.0,ExtBa=13.40